Time;durP1;ratioP1;P1;durP2;ratioP2;P2;SDS_P1;SDS_P2;PMS_P1;PMS_P2;Temp;Humidity;BMP_temperature;BMP_pressure;BME280_temperature;BME280_humidity;BME280_pressure;Samples;Min_cycle;Max_cycle;Signal;HPM_P1;HPM_P2
2022/12/03 00:02:25;;;;;;;0.50;0.40;;;3.40;99.90;;;;;;5113983;28;20809;-81
2022/12/03 00:04:52;;;;;;;2.00;0.60;;;3.50;99.90;;;;;;5113442;28;20476;-78
2022/12/03 00:07:18;;;;;;;0.60;0.60;;;3.50;99.90;;;;;;5113534;28;20455;-78
2022/12/03 00:09:45;;;;;;;1.80;0.50;;;3.40;99.90;;;;;;5113799;28;20439;-79
2022/12/03 00:12:12;;;;;;;2.43;0.67;;;3.30;99.90;;;;;;5113621;28;20476;-79
2022/12/03 00:14:38;;;;;;;2.20;0.67;;;3.10;99.90;;;;;;5113910;28;20467;-78
2022/12/03 00:17:06;;;;;;;0.90;0.63;;;3.10;99.90;;;;;;5113798;28;20439;-78
2022/12/03 00:19:33;;;;;;;0.87;0.87;;;3.10;99.90;;;;;;5113857;28;20819;-79
2022/12/03 00:22:00;;;;;;;0.40;0.40;;;3.10;99.90;;;;;;5115583;28;20479;-79
2022/12/03 00:24:27;;;;;;;1.10;0.80;;;2.90;99.90;;;;;;5117821;28;20467;-79
2022/12/03 00:26:53;;;;;;;0.57;0.50;;;2.80;99.90;;;;;;5117534;28;20810;-79
2022/12/03 00:29:20;;;;;;;5.87;0.93;;;2.80;99.90;;;;;;5117545;28;20446;-79
2022/12/03 00:31:47;;;;;;;1.53;0.73;;;2.70;99.90;;;;;;5117722;28;20451;-79
2022/12/03 00:34:15;;;;;;;3.03;0.90;;;2.70;99.90;;;;;;5117594;28;20483;-79
2022/12/03 00:36:42;;;;;;;3.20;1.63;;;2.60;99.90;;;;;;5117630;28;20443;-78
2022/12/03 00:39:08;;;;;;;0.30;0.30;;;2.60;99.90;;;;;;5117364;28;20439;-78
2022/12/03 00:41:35;;;;;;;0.50;0.50;;;2.60;99.90;;;;;;5118416;28;20877;-81
2022/12/03 00:44:02;;;;;;;0.43;0.43;;;2.60;99.90;;;;;;5117765;28;20951;-81
2022/12/03 00:46:29;;;;;;;0.77;0.77;;;2.50;99.90;;;;;;5117568;27;20473;-81
2022/12/03 00:48:55;;;;;;;1.60;1.50;;;2.30;99.90;;;;;;5117690;28;20942;-81
2022/12/03 00:51:23;;;;;;;3.90;0.70;;;2.30;99.90;;;;;;5117854;27;20938;-81
2022/12/03 00:53:50;;;;;;;0.63;0.50;;;2.20;99.90;;;;;;5117234;28;20482;-81
2022/12/03 00:56:17;;;;;;;0.60;0.50;;;2.20;99.90;;;;;;5117493;28;20468;-81
2022/12/03 00:58:44;;;;;;;1.27;0.83;;;2.10;99.90;;;;;;5117973;28;20443;-81
2022/12/03 01:01:10;;;;;;;1.13;0.70;;;2.10;99.90;;;;;;5118241;28;20909;-81
2022/12/03 01:03:37;;;;;;;0.70;0.70;;;2.10;99.90;;;;;;5117511;28;20440;-81
2022/12/03 01:06:04;;;;;;;0.50;0.50;;;2.10;99.90;;;;;;5117647;28;20470;-81
2022/12/03 01:08:32;;;;;;;0.70;0.40;;;2.00;99.90;;;;;;5117358;28;20450;-81
2022/12/03 01:10:59;;;;;;;1.10;0.80;;;2.10;99.90;;;;;;5117164;28;20487;-81
2022/12/03 01:13:26;;;;;;;1.53;0.67;;;2.00;99.90;;;;;;5117193;28;20499;-81
2022/12/03 01:15:53;;;;;;;0.77;0.40;;;2.10;99.90;;;;;;5117255;28;20444;-81
2022/12/03 01:18:19;;;;;;;0.50;0.50;;;2.10;99.90;;;;;;5117348;28;20447;-81
2022/12/03 01:20:46;;;;;;;0.60;0.60;;;2.10;99.90;;;;;;5116766;27;20483;-82
2022/12/03 01:23:13;;;;;;;0.40;0.40;;;2.00;99.90;;;;;;5117234;28;20440;-81
2022/12/03 01:25:41;;;;;;;0.70;0.50;;;2.00;99.90;;;;;;5116914;27;20474;-82
2022/12/03 01:28:08;;;;;;;0.50;0.50;;;2.00;99.90;;;;;;5116763;28;20444;-82
2022/12/03 01:32:15;;;;;;;0.97;0.87;;;2.00;99.90;;;;;;5116555;28;20450;-81
2022/12/03 01:33:20;;;;;;;1.83;1.73;;;2.00;99.90;;;;;;5116447;28;20476;-81
2022/12/03 01:35:47;;;;;;;0.67;0.67;;;2.10;99.90;;;;;;5117040;28;20466;-81
2022/12/03 01:38:14;;;;;;;2.10;0.87;;;2.10;99.90;;;;;;5117049;28;20205;-81
2022/12/03 01:40:42;;;;;;;0.80;0.80;;;2.10;99.90;;;;;;5117715;27;20422;-81
2022/12/03 01:43:08;;;;;;;1.03;0.40;;;2.10;99.90;;;;;;5117738;27;20933;-81
2022/12/03 01:45:35;;;;;;;1.40;1.30;;;2.10;99.90;;;;;;5117433;28;20468;-82
2022/12/03 01:48:02;;;;;;;0.40;0.40;;;2.20;99.90;;;;;;5116603;28;20455;-82
2022/12/03 01:50:32;;;;;;;0.83;0.77;;;2.20;99.90;;;;;;5116971;28;20443;-81
2022/12/03 01:53:01;;;;;;;0.63;0.60;;;2.30;99.90;;;;;;5116354;28;20479;-81
2022/12/03 01:55:28;;;;;;;1.50;0.57;;;2.30;99.90;;;;;;5117416;28;20463;-82
2022/12/03 01:57:59;;;;;;;0.40;0.40;;;2.40;99.90;;;;;;5120803;28;20447;-81
2022/12/03 02:00:27;;;;;;;0.87;0.40;;;2.40;99.90;;;;;;5116194;28;20500;-82
2022/12/03 02:02:55;;;;;;;1.17;0.80;;;2.40;99.90;;;;;;5116374;28;20412;-82
2022/12/03 02:05:25;;;;;;;0.40;0.40;;;2.40;99.90;;;;;;5116064;28;20474;-82
2022/12/03 02:07:52;;;;;;;2.47;1.80;;;2.50;99.90;;;;;;5115657;28;20443;-82
2022/12/03 02:10:23;;;;;;;0.73;0.73;;;2.60;99.90;;;;;;5115860;28;20422;-82
2022/12/03 02:12:54;;;;;;;0.40;0.30;;;2.60;99.90;;;;;;5115650;28;20467;-82
2022/12/03 02:15:22;;;;;;;1.50;1.03;;;2.60;99.90;;;;;;5115529;28;20851;-81
2022/12/03 02:17:50;;;;;;;0.40;0.40;;;2.60;99.90;;;;;;5115801;28;20466;-82
2022/12/03 02:20:17;;;;;;;0.63;0.63;;;2.50;99.90;;;;;;5115687;27;20553;-82
2022/12/03 02:22:51;;;;;;;0.93;0.57;;;2.50;99.90;;;;;;5116526;28;20444;-82
2022/12/03 02:25:22;;;;;;;4.97;1.30;;;2.60;99.90;;;;;;5115662;27;20473;-82
2022/12/03 02:27:49;;;;;;;1.90;1.37;;;2.60;99.90;;;;;;5115541;28;20444;-82
2022/12/03 02:30:20;;;;;;;0.97;0.57;;;2.70;99.90;;;;;;5115678;28;20448;-82
2022/12/03 02:32:47;;;;;;;0.30;0.30;;;2.70;99.90;;;;;;5115190;28;20435;-82
2022/12/03 02:35:16;;;;;;;0.33;0.33;;;2.60;99.90;;;;;;5115388;28;20470;-82
2022/12/03 02:37:45;;;;;;;0.70;0.50;;;2.60;99.90;;;;;;5115227;28;20785;-82
2022/12/03 02:40:16;;;;;;;11.00;1.10;;;2.70;99.90;;;;;;5115489;28;20443;-82
2022/12/03 02:42:44;;;;;;;1.23;0.73;;;2.60;99.90;;;;;;5115494;28;20432;-82
2022/12/03 02:45:14;;;;;;;3.13;1.33;;;2.60;99.90;;;;;;5115016;28;20464;-82
2022/12/03 02:47:44;;;;;;;0.40;0.40;;;2.60;99.90;;;;;;5115184;28;20466;-82
2022/12/03 02:50:13;;;;;;;0.70;0.70;;;2.60;99.90;;;;;;5115348;28;20870;-82
2022/12/03 02:52:42;;;;;;;1.83;1.27;;;2.60;99.90;;;;;;5115132;28;20474;-82
2022/12/03 02:55:10;;;;;;;1.33;1.13;;;2.60;99.90;;;;;;5115497;28;20471;-81
2022/12/03 02:57:38;;;;;;;0.60;0.53;;;2.70;99.90;;;;;;5115397;28;20474;-82
2022/12/03 03:00:10;;;;;;;0.63;0.57;;;2.70;99.90;;;;;;5115116;28;20447;-82
2022/12/03 03:02:38;;;;;;;1.90;0.70;;;2.80;99.90;;;;;;5115262;28;20439;-82
2022/12/03 03:05:07;;;;;;;3.93;0.87;;;2.80;99.90;;;;;;5114773;28;20994;-82
2022/12/03 03:07:35;;;;;;;0.90;0.90;;;2.80;99.90;;;;;;5115156;28;20440;-82
2022/12/03 03:10:04;;;;;;;0.87;0.50;;;2.70;99.90;;;;;;5114712;28;20996;-81
2022/12/03 03:12:31;;;;;;;1.00;0.97;;;2.80;99.90;;;;;;5114814;28;20440;-82
2022/12/03 03:14:58;;;;;;;0.90;0.90;;;2.80;99.90;;;;;;5115010;28;20495;-82
2022/12/03 03:17:27;;;;;;;6.23;0.93;;;2.80;99.90;;;;;;5114978;28;20454;-82
2022/12/03 03:19:53;;;;;;;13.70;1.70;;;2.80;99.90;;;;;;5114654;28;20973;-81
2022/12/03 03:22:20;;;;;;;6.47;1.03;;;2.80;99.90;;;;;;5114975;28;20444;-82
2022/12/03 03:25:02;;;;;;;3.43;0.60;;;2.80;99.90;;;;;;5102858;28;20547;-81
2022/12/03 03:27:30;;;;;;;4.97;1.67;;;2.90;99.90;;;;;;5114610;28;20816;-82
2022/12/03 03:29:58;;;;;;;2.10;0.93;;;2.80;99.90;;;;;;5114696;28;20825;-82
2022/12/03 03:32:27;;;;;;;0.53;0.53;;;2.80;99.90;;;;;;5114623;28;20443;-82
2022/12/03 03:34:55;;;;;;;0.90;0.63;;;2.80;99.90;;;;;;5113881;28;20479;-82
2022/12/03 03:37:22;;;;;;;1.90;1.80;;;2.70;99.90;;;;;;5114472;28;20439;-82
2022/12/03 03:39:49;;;;;;;0.80;0.67;;;2.80;99.90;;;;;;5114279;28;20963;-82
2022/12/03 03:42:16;;;;;;;0.47;0.47;;;2.80;99.90;;;;;;5114787;28;20444;-82
2022/12/03 03:44:43;;;;;;;2.00;0.60;;;2.80;99.90;;;;;;5113958;28;20993;-82
2022/12/03 03:47:10;;;;;;;1.70;1.67;;;2.90;99.90;;;;;;5113951;28;20796;-82
2022/12/03 03:49:38;;;;;;;6.30;1.20;;;2.90;99.90;;;;;;5114253;28;20418;-82
2022/12/03 03:52:08;;;;;;;1.10;1.10;;;2.90;99.90;;;;;;5113939;27;20430;-82
2022/12/03 03:54:35;;;;;;;1.07;0.90;;;2.80;99.90;;;;;;5113878;28;20874;-82
2022/12/03 03:57:02;;;;;;;0.90;0.83;;;2.80;99.90;;;;;;5113993;28;20458;-82
2022/12/03 03:59:29;;;;;;;4.50;0.63;;;2.80;99.90;;;;;;5114041;28;20452;-82
2022/12/03 04:01:56;;;;;;;1.10;0.87;;;2.80;99.90;;;;;;5114649;28;20447;-82
2022/12/03 04:04:26;;;;;;;0.90;0.90;;;2.70;99.90;;;;;;5115567;28;20420;-82
2022/12/03 04:06:54;;;;;;;0.80;0.80;;;2.70;99.90;;;;;;5114629;28;20452;-82
2022/12/03 04:09:20;;;;;;;0.70;0.70;;;2.70;99.90;;;;;;5113904;28;20444;-82
2022/12/03 04:14:31;;;;;;;0.83;0.83;;;2.70;99.90;;;;;;5113698;28;20478;-82
2022/12/03 04:16:58;;;;;;;0.40;0.37;;;2.70;99.90;;;;;;5113489;28;20934;-82
2022/12/03 04:19:25;;;;;;;0.87;0.80;;;2.70;99.90;;;;;;5113778;28;20456;-82
2022/12/03 04:24:37;;;;;;;0.60;0.60;;;2.70;99.90;;;;;;5113955;28;20458;-82
2022/12/03 04:29:48;;;;;;;1.90;0.50;;;2.70;99.90;;;;;;5113689;28;20556;-82
2022/12/03 04:37:45;;;;;;;4.80;0.60;;;2.70;99.90;;;;;;5113493;28;20433;-81
2022/12/03 04:42:53;;;;;;;1.27;0.90;;;2.80;99.90;;;;;;5112946;28;20520;-82
2022/12/03 04:45:20;;;;;;;2.67;0.73;;;2.60;99.90;;;;;;5113437;28;20435;-82
2022/12/03 04:47:46;;;;;;;0.40;0.30;;;2.60;99.90;;;;;;5113514;28;20436;-82
2022/12/03 04:50:13;;;;;;;0.63;0.63;;;2.60;99.90;;;;;;5113432;28;20435;-82
2022/12/03 04:52:40;;;;;;;0.37;0.37;;;2.70;99.90;;;;;;5113184;28;21084;-82
2022/12/03 04:55:09;;;;;;;0.43;0.43;;;2.70;99.90;;;;;;5112980;28;20479;-82
2022/12/03 04:57:35;;;;;;;0.50;0.50;;;2.70;99.90;;;;;;5113400;28;20471;-82
2022/12/03 05:00:03;;;;;;;0.30;0.30;;;2.70;99.90;;;;;;5113397;28;20451;-82
2022/12/03 05:02:29;;;;;;;0.50;0.50;;;2.70;99.90;;;;;;5113369;28;20512;-82
2022/12/03 05:04:56;;;;;;;1.40;1.30;;;2.70;99.90;;;;;;5112916;28;20528;-82
2022/12/03 05:07:23;;;;;;;0.40;0.30;;;2.70;99.90;;;;;;5114455;28;20450;-82
2022/12/03 05:09:50;;;;;;;2.00;0.50;;;2.70;99.90;;;;;;5117130;28;20447;-82
2022/12/03 05:12:18;;;;;;;4.97;2.00;;;2.80;99.90;;;;;;5117027;27;20443;-82
2022/12/03 05:14:44;;;;;;;0.80;0.80;;;2.70;99.90;;;;;;5116822;28;20484;-82
2022/12/03 05:17:11;;;;;;;0.40;0.40;;;2.80;99.90;;;;;;5116957;28;20446;-82
2022/12/03 05:22:22;;;;;;;1.03;1.03;;;2.80;99.90;;;;;;5116621;28;20899;-82
2022/12/03 05:24:49;;;;;;;3.47;1.03;;;2.80;99.90;;;;;;5117372;28;20441;-82
2022/12/03 05:27:15;;;;;;;0.30;0.30;;;2.70;99.90;;;;;;5116723;27;20449;-82
2022/12/03 05:29:43;;;;;;;1.40;0.67;;;2.70;99.90;;;;;;5116669;28;20445;-82
2022/12/03 05:32:10;;;;;;;0.50;0.50;;;2.70;99.90;;;;;;5116754;28;20424;-82
2022/12/03 05:34:37;;;;;;;0.67;0.67;;;2.80;99.90;;;;;;5116424;28;20469;-82
2022/12/03 05:37:04;;;;;;;0.70;0.70;;;2.70;99.90;;;;;;5116562;28;20458;-82
2022/12/03 05:39:31;;;;;;;3.90;0.50;;;2.70;99.90;;;;;;5116555;28;20450;-82
2022/12/03 05:44:43;;;;;;;2.77;0.90;;;2.70;99.90;;;;;;5116441;28;21012;-82
2022/12/03 05:47:10;;;;;;;2.73;0.93;;;2.70;99.90;;;;;;5116391;28;20502;-82
2022/12/03 05:49:37;;;;;;;1.00;1.00;;;2.70;99.90;;;;;;5116530;28;20444;-82
2022/12/03 05:52:04;;;;;;;0.70;0.70;;;2.70;99.90;;;;;;5115942;28;20448;-82
2022/12/03 05:54:31;;;;;;;0.40;0.40;;;2.70;99.90;;;;;;5116054;28;20487;-82
2022/12/03 05:56:57;;;;;;;1.83;1.00;;;2.80;99.90;;;;;;5116132;28;20429;-82
2022/12/03 05:59:24;;;;;;;0.90;0.90;;;2.80;99.90;;;;;;5116094;28;20451;-82
2022/12/03 06:01:52;;;;;;;1.33;1.33;;;2.80;99.90;;;;;;5115802;28;20497;-82
2022/12/03 06:04:19;;;;;;;1.80;0.90;;;2.80;99.90;;;;;;5115922;28;20817;-82
2022/12/03 06:06:46;;;;;;;0.60;0.40;;;2.90;99.90;;;;;;5115971;28;20447;-82
2022/12/03 06:09:12;;;;;;;0.70;0.70;;;2.90;99.90;;;;;;5115942;28;20450;-82
2022/12/03 06:11:40;;;;;;;20.27;1.90;;;2.90;99.90;;;;;;5116040;28;20450;-82
2022/12/03 06:14:07;;;;;;;0.50;0.50;;;2.90;99.90;;;;;;5115735;28;20506;-82
2022/12/03 06:16:33;;;;;;;2.57;0.80;;;2.90;99.90;;;;;;5115847;28;20873;-82
2022/12/03 06:19:02;;;;;;;2.80;2.43;;;2.90;99.90;;;;;;5114611;28;20450;-82
2022/12/03 06:21:28;;;;;;;0.40;0.40;;;2.90;99.90;;;;;;5115346;28;20520;-82
2022/12/03 06:23:55;;;;;;;1.03;0.63;;;2.90;99.90;;;;;;5115631;28;20439;-82
2022/12/03 06:26:22;;;;;;;0.53;0.53;;;3.00;99.90;;;;;;5115542;28;20474;-82
2022/12/03 06:28:49;;;;;;;0.37;0.37;;;2.90;99.90;;;;;;5115549;28;20435;-82
2022/12/03 06:31:15;;;;;;;0.50;0.50;;;3.00;99.90;;;;;;5115157;28;20447;-82
2022/12/03 06:33:42;;;;;;;0.40;0.40;;;3.00;99.90;;;;;;5115495;28;20448;-82
2022/12/03 06:36:11;;;;;;;0.80;0.40;;;3.00;99.90;;;;;;5115289;28;20474;-82
2022/12/03 06:38:37;;;;;;;1.77;0.87;;;2.90;99.90;;;;;;5115457;28;20791;-83
2022/12/03 06:41:04;;;;;;;0.40;0.40;;;3.00;99.90;;;;;;5115258;28;20458;-83
2022/12/03 06:43:31;;;;;;;0.50;0.40;;;3.00;99.90;;;;;;5114987;28;20946;-82
2022/12/03 06:45:58;;;;;;;0.70;0.57;;;3.00;99.90;;;;;;5114795;28;20471;-83
2022/12/03 06:48:25;;;;;;;0.70;0.70;;;3.00;99.90;;;;;;5114814;28;20458;-82
2022/12/03 06:50:51;;;;;;;0.80;0.60;;;2.90;99.90;;;;;;5115102;28;20444;-82
2022/12/03 06:53:20;;;;;;;0.97;0.87;;;3.00;99.90;;;;;;5114730;28;20457;-83
2022/12/03 06:55:46;;;;;;;0.50;0.50;;;2.90;99.90;;;;;;5114859;28;20493;-82
2022/12/03 06:58:13;;;;;;;2.43;0.77;;;3.00;99.90;;;;;;5114948;28;20451;-83
2022/12/03 07:00:40;;;;;;;0.47;0.43;;;3.00;99.90;;;;;;5114895;28;20458;-82
2022/12/03 07:03:06;;;;;;;0.77;0.77;;;3.00;99.90;;;;;;5114771;28;20447;-82
2022/12/03 07:05:33;;;;;;;1.80;0.70;;;2.90;99.90;;;;;;5114475;28;21004;-83
2022/12/03 07:08:00;;;;;;;0.63;0.50;;;2.90;99.90;;;;;;5114770;28;20444;-83
2022/12/03 07:10:28;;;;;;;0.77;0.40;;;2.90;99.90;;;;;;5114413;28;20917;-82
2022/12/03 07:12:55;;;;;;;0.37;0.37;;;2.90;99.90;;;;;;5114590;28;20439;-83
2022/12/03 07:15:22;;;;;;;0.30;0.30;;;2.90;99.90;;;;;;5114488;28;20488;-83
2022/12/03 07:17:49;;;;;;;8.60;1.17;;;3.00;99.90;;;;;;5114178;28;20439;-82
2022/12/03 07:20:16;;;;;;;0.40;0.40;;;3.00;99.90;;;;;;5114197;28;20480;-83
2022/12/03 07:22:43;;;;;;;0.40;0.40;;;3.00;99.90;;;;;;5114492;28;20787;-82
2022/12/03 07:25:11;;;;;;;2.77;0.60;;;3.10;99.90;;;;;;5114178;28;20841;-83
2022/12/03 07:27:39;;;;;;;0.63;0.53;;;3.10;99.90;;;;;;5114425;28;20447;-82
2022/12/03 07:30:07;;;;;;;0.30;0.30;;;3.00;99.90;;;;;;5114085;28;20450;-82
2022/12/03 07:32:34;;;;;;;1.60;1.17;;;3.00;99.90;;;;;;5114289;28;20834;-82
2022/12/03 07:35:01;;;;;;;1.43;1.13;;;3.10;99.90;;;;;;5113789;28;20837;-82
2022/12/03 07:37:28;;;;;;;2.10;0.80;;;3.10;99.90;;;;;;5114207;28;20450;-82
2022/12/03 07:39:55;;;;;;;1.13;1.00;;;3.10;99.90;;;;;;5114169;28;20448;-82
2022/12/03 07:42:21;;;;;;;2.20;2.10;;;3.20;99.90;;;;;;5114155;28;20456;-82
2022/12/03 07:44:50;;;;;;;0.40;0.40;;;3.10;99.90;;;;;;5113967;28;20460;-82
2022/12/03 07:47:17;;;;;;;0.93;0.90;;;3.20;99.90;;;;;;5114088;28;20455;-82
2022/12/03 07:49:44;;;;;;;1.90;0.97;;;3.10;99.90;;;;;;5113986;28;20446;-82
2022/12/03 07:52:10;;;;;;;0.40;0.40;;;3.10;99.90;;;;;;5113934;28;20459;-82
2022/12/03 07:54:37;;;;;;;5.23;1.47;;;3.20;99.90;;;;;;5113511;28;21021;-82
2022/12/03 07:57:04;;;;;;;0.40;0.40;;;3.10;99.90;;;;;;5113924;28;20448;-82
2022/12/03 07:59:31;;;;;;;0.40;0.40;;;3.10;99.90;;;;;;5113843;28;20451;-82
2022/12/03 08:02:01;;;;;;;0.30;0.30;;;3.20;99.90;;;;;;5114086;28;20447;-82
2022/12/03 08:04:28;;;;;;;1.27;1.17;;;3.10;99.90;;;;;;5113753;28;20451;-82
2022/12/03 08:06:54;;;;;;;0.40;0.40;;;3.20;99.90;;;;;;5113860;28;20820;-82
2022/12/03 08:09:22;;;;;;;0.70;0.40;;;3.10;99.90;;;;;;5113774;28;20447;-83
2022/12/03 08:11:49;;;;;;;0.97;0.50;;;3.20;99.90;;;;;;5113973;28;20483;-82
2022/12/03 08:14:17;;;;;;;0.50;0.50;;;3.20;99.90;;;;;;5113585;28;20450;-82
2022/12/03 08:16:46;;;;;;;1.63;1.53;;;3.20;99.90;;;;;;5113727;28;20444;-82
2022/12/03 08:19:16;;;;;;;9.20;0.60;;;3.20;99.90;;;;;;5113735;28;20448;-82
2022/12/03 08:21:44;;;;;;;0.57;0.57;;;3.20;99.90;;;;;;5113456;28;20525;-82
2022/12/03 08:24:14;;;;;;;28.87;1.13;;;3.20;99.90;;;;;;5113644;28;20443;-82
2022/12/03 08:26:43;;;;;;;0.30;0.30;;;3.30;99.90;;;;;;5113771;28;20459;-82
2022/12/03 08:29:11;;;;;;;0.97;0.60;;;3.30;99.90;;;;;;5113649;28;20483;-82
2022/12/03 08:31:39;;;;;;;1.00;1.00;;;3.30;99.90;;;;;;5113626;28;20443;-82
2022/12/03 08:34:19;;;;;;;2.43;1.13;;;3.30;99.90;;;;;;5113588;28;20450;-82
2022/12/03 08:36:47;;;;;;;6.33;1.50;;;3.30;99.90;;;;;;5113621;28;20438;-83
2022/12/03 08:39:28;;;;;;;0.50;0.50;;;3.30;99.90;;;;;;5113566;28;20458;-83
2022/12/03 08:44:43;;;;;;;0.50;0.50;;;3.30;99.90;;;;;;5117665;28;20447;-82
2022/12/03 08:47:15;;;;;;;0.80;0.40;;;3.30;99.90;;;;;;5117297;28;20431;-82
2022/12/03 08:49:47;;;;;;;0.47;0.47;;;3.20;99.90;;;;;;5117516;28;20447;-82
2022/12/03 08:52:18;;;;;;;0.77;0.77;;;3.30;99.90;;;;;;5117453;28;20434;-82
2022/12/03 08:54:52;;;;;;;0.70;0.70;;;3.30;99.90;;;;;;5117507;28;20509;-82
2022/12/03 08:57:27;;;;;;;0.60;0.60;;;3.30;99.90;;;;;;5117441;28;20430;-82
2022/12/03 08:59:58;;;;;;;0.30;0.30;;;3.40;99.90;;;;;;5117304;28;20438;-82
2022/12/03 09:02:31;;;;;;;0.57;0.57;;;3.40;99.90;;;;;;5117288;28;20500;-82
2022/12/03 09:05:02;;;;;;;2.03;0.63;;;3.40;99.90;;;;;;5117109;28;20467;-83
2022/12/03 09:07:29;;;;;;;3.13;0.77;;;3.30;99.90;;;;;;5117502;28;20432;-84
2022/12/03 09:09:56;;;;;;;1.90;0.63;;;3.30;99.90;;;;;;5117234;28;20450;-83
2022/12/03 09:12:23;;;;;;;1.00;1.00;;;3.30;99.90;;;;;;5116596;28;20451;-82
2022/12/03 09:14:49;;;;;;;0.30;0.30;;;3.40;99.90;;;;;;5116867;28;20489;-81
2022/12/03 09:17:16;;;;;;;0.57;0.57;;;3.30;99.90;;;;;;5117138;28;20450;-82
2022/12/03 09:19:44;;;;;;;0.80;0.80;;;3.30;99.90;;;;;;5116524;28;20951;-81
2022/12/03 09:22:14;;;;;;;0.73;0.73;;;3.20;99.90;;;;;;5116436;28;21074;-82
2022/12/03 09:24:40;;;;;;;0.77;0.70;;;3.30;99.90;;;;;;5116745;28;20592;-81
2022/12/03 09:27:07;;;;;;;0.57;0.57;;;3.30;99.90;;;;;;5116761;28;20454;-82
2022/12/03 09:29:34;;;;;;;0.40;0.30;;;3.40;99.90;;;;;;5116839;28;20444;-81
2022/12/03 09:32:01;;;;;;;0.60;0.60;;;3.40;99.90;;;;;;5116666;28;20450;-82
2022/12/03 09:34:28;;;;;;;3.40;1.53;;;3.50;99.90;;;;;;5116442;28;20443;-82
2022/12/03 09:36:54;;;;;;;0.53;0.53;;;3.50;99.90;;;;;;5116588;28;20430;-82
2022/12/03 09:39:23;;;;;;;0.70;0.70;;;3.50;99.90;;;;;;5116198;28;20961;-82
2022/12/03 09:41:49;;;;;;;0.53;0.53;;;3.50;99.90;;;;;;5116494;28;20447;-82
2022/12/03 09:44:16;;;;;;;0.60;0.60;;;3.50;99.90;;;;;;5116362;28;20443;-81
2022/12/03 09:46:43;;;;;;;0.70;0.70;;;3.50;99.90;;;;;;5116368;28;20440;-82
2022/12/03 09:49:12;;;;;;;0.57;0.43;;;3.60;99.90;;;;;;5116207;28;20965;-82
2022/12/03 09:51:39;;;;;;;0.60;0.60;;;3.60;99.90;;;;;;5116284;28;20439;-82
2022/12/03 09:54:07;;;;;;;3.53;1.03;;;3.60;99.90;;;;;;5115764;28;20954;-82
2022/12/03 09:56:37;;;;;;;0.50;0.43;;;3.60;99.90;;;;;;5116078;27;20482;-82
2022/12/03 09:59:06;;;;;;;1.13;0.93;;;3.60;99.90;;;;;;5116196;28;20769;-82
2022/12/03 10:01:33;;;;;;;0.30;0.30;;;3.60;99.90;;;;;;5116125;28;20817;-81
2022/12/03 10:04:01;;;;;;;0.40;0.40;;;3.60;99.90;;;;;;5115737;28;20796;-81
2022/12/03 10:06:29;;;;;;;1.70;0.97;;;3.60;99.90;;;;;;5116218;28;20466;-81
2022/12/03 10:08:58;;;;;;;0.33;0.33;;;3.50;99.90;;;;;;5115929;28;20451;-81
2022/12/03 10:11:26;;;;;;;1.17;0.47;;;3.40;99.90;;;;;;5115929;28;20447;-82
2022/12/03 10:13:56;;;;;;;0.70;0.70;;;3.30;99.90;;;;;;5115845;28;20447;-82
2022/12/03 10:16:23;;;;;;;5.03;4.63;;;3.30;99.90;;;;;;5115667;28;20490;-81
2022/12/03 10:18:52;;;;;;;0.30;0.30;;;3.30;99.90;;;;;;5115738;28;20935;-81
2022/12/03 10:21:23;;;;;;;0.50;0.40;;;3.10;99.90;;;;;;5115356;28;20479;-81
2022/12/03 10:24:10;;;;;;;0.90;0.90;;;3.20;99.90;;;;;;5115664;28;20439;-81
2022/12/03 10:26:40;;;;;;;1.00;1.00;;;3.10;99.90;;;;;;5115164;28;20444;-81
2022/12/03 10:29:13;;;;;;;6.13;1.20;;;3.00;99.90;;;;;;5115237;28;20444;-81
2022/12/03 10:31:40;;;;;;;8.10;0.80;;;2.90;99.90;;;;;;5115544;28;20420;-81
2022/12/03 10:34:08;;;;;;;0.30;0.30;;;2.90;99.90;;;;;;5115447;28;20451;-81
2022/12/03 10:36:35;;;;;;;1.47;0.60;;;2.90;99.90;;;;;;5115340;28;20472;-81
2022/12/03 10:39:11;;;;;;;4.87;1.00;;;3.00;99.90;;;;;;5115370;28;20508;-81
2022/12/03 10:41:39;;;;;;;0.70;0.70;;;2.90;99.90;;;;;;5115309;27;20530;-81
2022/12/03 10:44:17;;;;;;;1.83;1.73;;;3.00;99.90;;;;;;5115193;28;20447;-81
2022/12/03 10:46:44;;;;;;;3.53;1.30;;;3.00;99.90;;;;;;5115216;28;20438;-81
2022/12/03 10:49:15;;;;;;;4.10;2.00;;;3.00;99.90;;;;;;5115379;28;20450;-81
2022/12/03 10:51:43;;;;;;;2.93;0.73;;;2.90;99.90;;;;;;5115190;28;20432;-81
2022/12/03 10:54:16;;;;;;;1.27;0.97;;;3.00;99.90;;;;;;5115927;28;20439;-80
2022/12/03 10:56:44;;;;;;;0.40;0.40;;;3.00;99.90;;;;;;5115031;28;20460;-81
2022/12/03 10:59:17;;;;;;;2.77;0.63;;;3.00;99.90;;;;;;5114907;28;20446;-81
2022/12/03 11:01:44;;;;;;;0.70;0.50;;;3.00;99.90;;;;;;5114934;28;20489;-81
2022/12/03 11:04:21;;;;;;;0.53;0.53;;;3.00;99.90;;;;;;5114759;28;20444;-81
2022/12/03 11:06:49;;;;;;;1.33;0.93;;;2.90;99.90;;;;;;5114449;28;20784;-81
2022/12/03 11:09:20;;;;;;;2.17;0.50;;;3.00;99.90;;;;;;5114547;28;20943;-81
2022/12/03 11:11:48;;;;;;;0.83;0.83;;;2.90;99.90;;;;;;5114414;28;20964;-81
2022/12/03 11:15:06;;;;;;;0.40;0.30;;;2.90;99.90;;;;;;5114253;28;20943;-81
2022/12/03 11:17:47;;;;;;;1.60;0.97;;;3.00;99.90;;;;;;5051701;28;20942;-79
2022/12/03 11:20:55;;;;;;;1.33;0.60;;;3.00;99.90;;;;;;5105136;28;20596;-79
2022/12/03 11:23:55;;;;;;;1.80;0.83;;;2.90;99.90;;;;;;5114330;27;20443;-79
2022/12/03 11:26:55;;;;;;;0.87;0.80;;;2.90;99.90;;;;;;5114399;28;20466;-79
2022/12/03 11:29:52;;;;;;;0.80;0.60;;;2.80;99.90;;;;;;5114018;28;20932;-79
2022/12/03 11:33:07;;;;;;;0.67;0.60;;;2.80;99.90;;;;;;5114383;28;20431;-79
2022/12/03 11:36:07;;;;;;;2.00;0.83;;;2.80;99.90;;;;;;5114127;28;20495;-79
2022/12/03 11:38:51;;;;;;;0.83;0.73;;;2.80;99.90;;;;;;5111877;27;20448;-79
2022/12/03 11:41:20;;;;;;;0.40;0.40;;;2.90;99.90;;;;;;5114206;28;20424;-79
2022/12/03 11:44:15;;;;;;;0.50;0.50;;;2.90;99.90;;;;;;5114115;28;20455;-79
2022/12/03 11:46:46;;;;;;;0.37;0.33;;;2.90;99.90;;;;;;5104913;27;20963;-79
2022/12/03 11:49:32;;;;;;;0.97;0.97;;;2.80;99.90;;;;;;5114192;28;20446;-79
2022/12/03 11:52:04;;;;;;;0.90;0.90;;;2.80;99.90;;;;;;5114160;28;20926;-79
2022/12/03 11:54:34;;;;;;;0.80;0.80;;;2.90;99.90;;;;;;5114318;28;20468;-79
2022/12/03 11:57:01;;;;;;;0.70;0.57;;;2.90;99.90;;;;;;5114289;28;20475;-79
2022/12/03 11:59:28;;;;;;;0.80;0.80;;;2.90;99.90;;;;;;5113987;28;20522;-79
2022/12/03 12:01:56;;;;;;;0.30;0.30;;;2.90;99.90;;;;;;5113977;28;20451;-79
2022/12/03 12:04:32;;;;;;;1.73;0.60;;;2.80;99.90;;;;;;5113850;28;20470;-79
2022/12/03 12:06:59;;;;;;;4.20;1.73;;;2.80;99.90;;;;;;5113571;28;20815;-79
2022/12/03 12:09:48;;;;;;;1.13;1.03;;;2.80;99.90;;;;;;5113560;28;20961;-79
2022/12/03 12:12:19;;;;;;;1.40;1.00;;;2.80;99.90;;;;;;5113850;28;20451;-79
2022/12/03 12:14:46;;;;;;;0.97;0.80;;;2.80;99.90;;;;;;5113724;28;20802;-79
2022/12/03 12:17:29;;;;;;;0.87;0.50;;;2.80;99.90;;;;;;5114665;28;20505;-79
2022/12/03 12:20:12;;;;;;;0.40;0.40;;;2.70;99.90;;;;;;5117931;28;20435;-79
2022/12/03 12:22:39;;;;;;;1.77;1.67;;;2.70;99.90;;;;;;5118891;28;20428;-79
2022/12/03 12:25:36;;;;;;;3.50;1.00;;;2.70;99.90;;;;;;5117897;28;20456;-79
2022/12/03 12:28:03;;;;;;;0.40;0.40;;;2.60;99.90;;;;;;5117881;28;20496;-79
2022/12/03 12:30:30;;;;;;;3.37;0.73;;;2.50;99.90;;;;;;5117865;28;20446;-79
2022/12/03 12:33:11;;;;;;;0.80;0.77;;;2.50;99.90;;;;;;5118067;28;20442;-79
2022/12/03 12:35:38;;;;;;;1.10;1.10;;;2.40;99.90;;;;;;5117628;28;20512;-79
2022/12/03 12:38:14;;;;;;;1.13;1.13;;;2.40;99.90;;;;;;5117424;28;20941;-79
2022/12/03 12:40:44;;;;;;;1.47;1.23;;;2.40;99.90;;;;;;5117715;28;20431;-79
2022/12/03 12:43:23;;;;;;;0.57;0.57;;;2.40;99.90;;;;;;5117619;28;20597;-79
2022/12/03 12:45:50;;;;;;;2.33;1.07;;;2.40;99.90;;;;;;5117482;28;20455;-79
2022/12/03 12:48:25;;;;;;;3.37;0.50;;;2.40;99.90;;;;;;5117443;28;20443;-79
2022/12/03 12:50:58;;;;;;;0.37;0.33;;;2.40;99.90;;;;;;5117682;28;20431;-79
2022/12/03 12:53:27;;;;;;;0.30;0.30;;;2.40;99.90;;;;;;5117386;28;20899;-79
2022/12/03 12:55:56;;;;;;;1.43;1.33;;;2.50;99.90;;;;;;5117197;28;20488;-80
2022/12/03 12:58:24;;;;;;;4.83;0.70;;;2.50;99.90;;;;;;5117272;28;20448;-80
2022/12/03 13:00:53;;;;;;;0.30;0.30;;;2.60;99.90;;;;;;5116913;28;20907;-79
2022/12/03 13:03:24;;;;;;;4.83;0.87;;;2.70;99.90;;;;;;5116936;28;20448;-79
2022/12/03 13:05:52;;;;;;;1.70;0.47;;;2.60;99.90;;;;;;5117129;28;20464;-79
2022/12/03 13:08:23;;;;;;;1.00;1.00;;;2.60;99.90;;;;;;5116762;28;20443;-79
2022/12/03 13:10:50;;;;;;;2.00;0.60;;;2.60;99.90;;;;;;5116688;28;20432;-79
2022/12/03 13:13:28;;;;;;;0.57;0.57;;;2.60;99.90;;;;;;5117045;28;20450;-79
2022/12/03 13:16:05;;;;;;;0.40;0.40;;;2.60;99.90;;;;;;5116876;28;20479;-79
2022/12/03 13:18:41;;;;;;;0.30;0.30;;;2.50;99.90;;;;;;5117020;28;20483;-79
2022/12/03 13:21:19;;;;;;;0.70;0.70;;;2.50;99.90;;;;;;5116402;28;20528;-79
2022/12/03 13:23:46;;;;;;;0.40;0.40;;;2.50;99.90;;;;;;5116585;28;20895;-79
2022/12/03 13:26:21;;;;;;;10.23;1.10;;;2.50;99.90;;;;;;5116714;28;20466;-79
2022/12/03 13:28:48;;;;;;;4.53;1.33;;;2.30;99.90;;;;;;5116792;28;20436;-79
2022/12/03 13:31:22;;;;;;;4.87;2.50;;;2.30;99.90;;;;;;5116353;28;20448;-79
2022/12/03 13:33:51;;;;;;;0.40;0.40;;;2.30;99.90;;;;;;5116732;28;20777;-79
2022/12/03 13:36:20;;;;;;;0.40;0.40;;;2.40;99.90;;;;;;5116378;27;20494;-78